Time;durP1;ratioP1;P1;durP2;ratioP2;P2;SDS_P1;SDS_P2;PMS_P1;PMS_P2;Temp;Humidity;BMP_temperature;BMP_pressure;BME280_temperature;BME280_humidity;BME280_pressure;Samples;Min_cycle;Max_cycle;Signal;HPM_P1;HPM_P2
2024/01/18 00:00:40;;;;;;;51.60;26.73;;;-0.70;99.90;;;;;;5060537;28;20025;-69
2024/01/18 00:03:05;;;;;;;52.78;26.27;;;-0.80;99.90;;;;;;5062660;28;20025;-69
2024/01/18 00:05:31;;;;;;;61.28;27.23;;;-0.80;99.90;;;;;;5060415;28;20049;-68
2024/01/18 00:07:56;;;;;;;60.30;27.35;;;-0.80;99.90;;;;;;5062457;28;20037;-68
2024/01/18 00:10:26;;;;;;;59.45;27.88;;;-0.80;99.90;;;;;;5062314;28;20067;-68
2024/01/18 00:12:55;;;;;;;62.42;28.73;;;-0.90;99.90;;;;;;5062209;28;20013;-68
2024/01/18 00:15:21;;;;;;;62.47;29.10;;;-0.90;99.90;;;;;;5062257;28;20017;-68
2024/01/18 00:17:47;;;;;;;66.53;29.15;;;-0.90;99.90;;;;;;5061973;28;20047;-68
2024/01/18 00:20:14;;;;;;;60.53;29.50;;;-0.90;99.90;;;;;;5062468;28;20029;-68
2024/01/18 00:22:39;;;;;;;65.43;29.90;;;-1.00;99.90;;;;;;5062053;28;20074;-69
2024/01/18 00:25:07;;;;;;;62.05;28.55;;;-1.00;99.90;;;;;;5061901;28;20025;-70
2024/01/18 00:27:32;;;;;;;62.33;29.52;;;-0.90;99.90;;;;;;5061158;28;20039;-68
2024/01/18 00:29:58;;;;;;;61.60;29.35;;;-1.00;99.90;;;;;;5062347;28;20033;-68
2024/01/18 00:32:24;;;;;;;60.60;28.38;;;-1.00;99.90;;;;;;5062016;28;20091;-68
2024/01/18 00:34:50;;;;;;;60.53;28.38;;;-1.00;99.90;;;;;;5062354;28;20455;-69
2024/01/18 00:37:16;;;;;;;65.13;29.92;;;-1.00;99.90;;;;;;5060799;28;20032;-68
2024/01/18 00:39:42;;;;;;;66.45;30.55;;;-1.00;99.90;;;;;;5060392;28;20017;-68
2024/01/18 00:42:08;;;;;;;66.10;29.25;;;-1.00;99.90;;;;;;5062416;28;20021;-67
2024/01/18 00:44:33;;;;;;;63.97;29.70;;;-1.00;99.90;;;;;;5062097;28;20043;-69
2024/01/18 00:46:59;;;;;;;61.00;28.38;;;-1.00;99.90;;;;;;5060534;28;20033;-68
2024/01/18 00:49:24;;;;;;;62.58;29.35;;;-1.00;99.90;;;;;;5061677;28;20017;-68
2024/01/18 00:51:50;;;;;;;63.42;29.60;;;-1.00;99.90;;;;;;5062005;28;20050;-69
2024/01/18 00:54:15;;;;;;;64.00;30.13;;;-0.90;99.90;;;;;;5060238;28;20027;-67
2024/01/18 00:56:41;;;;;;;64.85;30.10;;;-0.90;99.90;;;;;;5060779;28;20017;-68
2024/01/18 00:59:08;;;;;;;62.95;30.05;;;-0.90;99.90;;;;;;5062134;28;20025;-68
2024/01/18 01:01:33;;;;;;;60.05;28.90;;;-0.90;99.90;;;;;;5060560;28;20148;-69
2024/01/18 01:03:59;;;;;;;61.72;28.98;;;-0.90;99.90;;;;;;5061519;28;20493;-69
2024/01/18 01:06:25;;;;;;;61.30;29.60;;;-0.90;99.90;;;;;;5059951;28;20037;-69
2024/01/18 01:08:50;;;;;;;60.92;29.65;;;-0.90;99.90;;;;;;5061489;28;20084;-69
2024/01/18 01:11:17;;;;;;;66.65;30.35;;;-0.90;99.90;;;;;;5061825;28;20363;-70
2024/01/18 01:13:44;;;;;;;70.80;29.73;;;-0.90;99.90;;;;;;5061527;28;20044;-67
2024/01/18 01:16:10;;;;;;;62.92;29.63;;;-0.90;99.90;;;;;;5062672;28;20021;-68
2024/01/18 01:18:36;;;;;;;59.72;28.35;;;-1.00;99.90;;;;;;5064679;28;20048;-68
2024/01/18 01:21:02;;;;;;;55.97;27.70;;;-1.00;99.90;;;;;;5065271;28;20017;-68
2024/01/18 01:23:27;;;;;;;55.88;27.65;;;-1.00;99.90;;;;;;5065664;28;20028;-67
2024/01/18 01:25:53;;;;;;;56.45;27.35;;;-1.00;99.90;;;;;;5065554;28;20025;-69
2024/01/18 01:28:18;;;;;;;60.30;28.40;;;-1.00;99.90;;;;;;5065163;28;20084;-68
2024/01/18 01:30:44;;;;;;;59.53;28.10;;;-1.00;99.90;;;;;;5063503;28;20021;-68
2024/01/18 01:33:10;;;;;;;53.58;26.75;;;-1.00;99.90;;;;;;5064312;28;20048;-69
2024/01/18 01:35:35;;;;;;;55.50;25.20;;;-1.00;99.90;;;;;;5065157;28;20029;-68
2024/01/18 01:38:01;;;;;;;58.30;26.42;;;-0.90;99.90;;;;;;5065399;28;20029;-68
2024/01/18 01:40:26;;;;;;;55.45;26.83;;;-1.00;99.90;;;;;;5065297;28;20048;-68
2024/01/18 01:42:52;;;;;;;55.28;27.50;;;-1.00;99.90;;;;;;5064972;28;20028;-68
2024/01/18 01:45:17;;;;;;;56.67;27.38;;;-1.00;99.90;;;;;;5065280;28;20031;-68
2024/01/18 01:47:43;;;;;;;57.33;27.02;;;-1.00;99.90;;;;;;5065069;28;20037;-68
2024/01/18 01:50:10;;;;;;;59.55;26.30;;;-1.00;99.90;;;;;;5063655;28;20112;-69
2024/01/18 01:52:36;;;;;;;58.20;26.65;;;-0.90;99.90;;;;;;5064827;28;20021;-69
2024/01/18 01:55:03;;;;;;;52.47;26.50;;;-0.90;99.90;;;;;;5063492;28;20032;-68
2024/01/18 01:57:32;;;;;;;55.42;27.35;;;-0.90;99.90;;;;;;5064877;28;20021;-68
2024/01/18 01:59:57;;;;;;;63.47;28.00;;;-0.90;99.90;;;;;;5063609;28;20028;-68
2024/01/18 02:02:23;;;;;;;57.63;27.13;;;-1.00;99.90;;;;;;5063376;28;20033;-68
2024/01/18 02:04:50;;;;;;;66.13;28.05;;;-1.00;99.90;;;;;;5064473;28;20057;-68
2024/01/18 02:07:16;;;;;;;55.45;25.77;;;-1.00;99.90;;;;;;5064248;28;20037;-69
2024/01/18 02:09:42;;;;;;;61.60;28.20;;;-1.00;99.90;;;;;;5064310;28;20029;-69
2024/01/18 02:12:09;;;;;;;57.22;27.05;;;-1.10;99.90;;;;;;5064785;28;20021;-68
2024/01/18 02:14:36;;;;;;;52.28;24.45;;;-1.10;99.90;;;;;;5064386;28;20021;-68
2024/01/18 02:17:03;;;;;;;55.15;25.55;;;-1.20;99.90;;;;;;5064334;28;20044;-69
2024/01/18 02:19:29;;;;;;;56.58;26.05;;;-1.20;99.90;;;;;;5064116;28;20119;-69
2024/01/18 02:21:55;;;;;;;55.28;26.17;;;-1.20;99.90;;;;;;5064487;28;20092;-68
2024/01/18 02:24:30;;;;;;;56.55;25.38;;;-1.20;99.90;;;;;;5064136;28;20013;-67
2024/01/18 02:26:57;;;;;;;60.90;26.02;;;-1.30;99.90;;;;;;5063022;28;20045;-69
2024/01/18 02:29:22;;;;;;;54.72;24.23;;;-1.30;99.90;;;;;;5062143;28;20112;-67
2024/01/18 02:31:48;;;;;;;60.53;26.40;;;-1.30;99.90;;;;;;5064211;28;20452;-68
2024/01/18 02:34:16;;;;;;;53.90;25.85;;;-1.40;99.90;;;;;;5063559;28;20025;-68
2024/01/18 02:36:42;;;;;;;57.60;25.17;;;-1.40;99.90;;;;;;5063429;28;20047;-68
2024/01/18 02:39:08;;;;;;;48.50;23.52;;;-1.40;99.90;;;;;;5062426;28;20104;-70
2024/01/18 02:41:34;;;;;;;53.85;24.33;;;-1.50;99.90;;;;;;5064332;28;20036;-67
2024/01/18 02:44:03;;;;;;;54.67;24.77;;;-1.50;99.90;;;;;;5063683;28;20044;-68
2024/01/18 02:46:32;;;;;;;57.33;23.58;;;-1.50;99.90;;;;;;5063894;28;20041;-67
2024/01/18 02:48:58;;;;;;;50.60;24.60;;;-1.50;99.90;;;;;;5063737;28;20055;-68
2024/01/18 02:51:23;;;;;;;55.15;24.88;;;-1.50;99.90;;;;;;5063581;28;20025;-67
2024/01/18 02:53:49;;;;;;;53.90;25.30;;;-1.50;99.90;;;;;;5063902;28;20029;-68
2024/01/18 02:56:15;;;;;;;52.72;24.10;;;-1.50;99.90;;;;;;5063737;28;20104;-67
2024/01/18 02:58:40;;;;;;;56.80;25.50;;;-1.50;99.90;;;;;;5063008;28;20032;-69
2024/01/18 03:01:06;;;;;;;50.50;23.83;;;-1.50;99.90;;;;;;5063896;28;20080;-69
2024/01/18 03:03:34;;;;;;;50.65;24.58;;;-1.50;99.90;;;;;;5062450;28;20021;-68
2024/01/18 03:06:00;;;;;;;53.47;24.45;;;-1.50;99.90;;;;;;5063309;28;20140;-67
2024/01/18 03:08:26;;;;;;;52.03;24.50;;;-1.50;99.90;;;;;;5063754;28;20138;-67
2024/01/18 03:10:51;;;;;;;54.47;24.23;;;-1.50;99.90;;;;;;5063167;28;20051;-69
2024/01/18 03:13:17;;;;;;;49.78;22.90;;;-1.50;99.90;;;;;;5061936;28;20088;-68
2024/01/18 03:15:42;;;;;;;48.63;23.13;;;-1.50;99.90;;;;;;5063448;28;20022;-69
2024/01/18 03:18:08;;;;;;;53.58;23.60;;;-1.50;99.90;;;;;;5063264;28;20278;-68
2024/01/18 03:20:34;;;;;;;53.85;23.02;;;-1.50;99.90;;;;;;5063114;28;20059;-70
2024/01/18 03:23:00;;;;;;;45.28;21.48;;;-1.60;99.90;;;;;;5063469;28;20021;-69
2024/01/18 03:25:26;;;;;;;43.03;21.20;;;-1.50;99.90;;;;;;5063297;28;20557;-69
2024/01/18 03:27:51;;;;;;;50.90;22.90;;;-1.50;99.90;;;;;;5062264;28;20096;-68
2024/01/18 03:30:17;;;;;;;48.03;22.55;;;-1.50;99.90;;;;;;5063383;28;20028;-68
2024/01/18 03:32:43;;;;;;;51.78;21.92;;;-1.50;99.90;;;;;;5063117;28;20029;-68
2024/01/18 03:35:09;;;;;;;44.53;20.50;;;-1.50;99.90;;;;;;5062885;28;20085;-70
2024/01/18 03:37:35;;;;;;;43.92;20.92;;;-1.50;99.90;;;;;;5063141;28;20032;-71
2024/01/18 03:40:00;;;;;;;40.47;20.23;;;-1.60;99.90;;;;;;5061521;28;20017;-68
2024/01/18 03:42:26;;;;;;;43.25;20.58;;;-1.60;99.90;;;;;;5063047;28;20080;-68
2024/01/18 03:44:51;;;;;;;43.25;20.75;;;-1.60;99.90;;;;;;5062727;28;20033;-70
2024/01/18 03:47:17;;;;;;;43.25;20.92;;;-1.70;99.90;;;;;;5062487;28;20033;-70
2024/01/18 03:49:43;;;;;;;44.97;20.08;;;-1.70;99.90;;;;;;5061286;28;20024;-69
2024/01/18 03:52:10;;;;;;;45.55;20.13;;;-1.80;99.90;;;;;;5061491;28;20067;-70
2024/01/18 03:54:36;;;;;;;44.38;20.50;;;-1.80;99.90;;;;;;5060320;28;20090;-70
2024/01/18 03:57:01;;;;;;;47.13;20.27;;;-1.80;99.90;;;;;;5061492;28;20021;-70
2024/01/18 03:59:27;;;;;;;42.58;19.67;;;-1.80;99.90;;;;;;5061768;28;20025;-70
2024/01/18 04:01:52;;;;;;;46.42;20.48;;;-1.80;99.90;;;;;;5060883;28;20033;-69
2024/01/18 04:04:18;;;;;;;49.78;20.15;;;-1.80;99.90;;;;;;5062157;28;20049;-69
2024/01/18 04:06:43;;;;;;;45.70;18.92;;;-1.80;99.90;;;;;;5062283;28;20060;-69
2024/01/18 04:09:10;;;;;;;43.42;19.42;;;-1.90;99.90;;;;;;5060410;28;20052;-70
2024/01/18 04:11:36;;;;;;;49.17;21.15;;;-1.90;99.90;;;;;;5062789;28;20021;-69
2024/01/18 04:14:01;;;;;;;51.33;20.50;;;-1.90;99.90;;;;;;5059887;28;20025;-69
2024/01/18 04:16:29;;;;;;;53.38;21.17;;;-1.90;99.90;;;;;;5060906;28;20033;-69
2024/01/18 04:18:54;;;;;;;47.90;21.80;;;-1.90;99.90;;;;;;5060254;28;20036;-70
2024/01/18 04:21:20;;;;;;;47.50;21.77;;;-1.90;99.90;;;;;;5057413;28;20024;-71
2024/01/18 04:23:46;;;;;;;51.55;22.48;;;-1.90;99.90;;;;;;5061505;28;20025;-70
2024/01/18 04:26:11;;;;;;;47.78;21.27;;;-1.90;99.90;;;;;;5062276;28;20063;-70
2024/01/18 04:28:37;;;;;;;54.75;22.00;;;-1.90;99.90;;;;;;5060920;28;20025;-69
2024/01/18 04:31:03;;;;;;;46.92;21.85;;;-1.90;99.90;;;;;;5060071;28;20033;-68
2024/01/18 04:33:28;;;;;;;48.20;21.65;;;-1.90;99.90;;;;;;5062339;28;20701;-70
2024/01/18 04:35:54;;;;;;;49.15;21.73;;;-1.90;99.90;;;;;;5062251;28;20032;-71
2024/01/18 04:38:20;;;;;;;47.95;20.80;;;-1.90;99.90;;;;;;5061817;28;20033;-69
2024/01/18 04:40:45;;;;;;;48.90;22.30;;;-1.80;99.90;;;;;;5061741;28;20029;-69
2024/01/18 04:43:11;;;;;;;44.30;21.17;;;-1.80;99.90;;;;;;5060326;28;20040;-70
2024/01/18 04:45:36;;;;;;;52.00;21.70;;;-1.80;99.90;;;;;;5056507;28;20413;-69
2024/01/18 04:48:03;;;;;;;45.13;20.95;;;-1.80;99.90;;;;;;5060931;28;20036;-70
2024/01/18 04:50:28;;;;;;;48.45;21.30;;;-1.90;99.90;;;;;;5059333;28;20025;-69
2024/01/18 04:52:54;;;;;;;43.90;21.67;;;-1.90;99.90;;;;;;5063037;28;20480;-68
2024/01/18 04:55:20;;;;;;;48.80;21.63;;;-1.90;99.90;;;;;;5060962;28;20040;-70
2024/01/18 04:57:49;;;;;;;48.50;21.95;;;-1.90;99.90;;;;;;5060453;28;20021;-68
2024/01/18 05:00:15;;;;;;;54.67;22.85;;;-1.90;99.90;;;;;;5061370;28;20152;-71
2024/01/18 05:02:41;;;;;;;47.88;22.35;;;-1.90;99.90;;;;;;5062727;28;20064;-70
2024/01/18 05:05:08;;;;;;;56.50;22.80;;;-1.90;99.90;;;;;;5064469;28;20055;-70
2024/01/18 05:07:34;;;;;;;54.35;22.52;;;-2.00;99.90;;;;;;5063919;28;20097;-69
2024/01/18 05:10:01;;;;;;;61.10;25.63;;;-1.90;99.90;;;;;;5064716;28;20486;-68
2024/01/18 05:12:27;;;;;;;55.47;24.15;;;-2.00;99.90;;;;;;5065371;28;20543;-68
2024/01/18 05:14:52;;;;;;;56.75;24.90;;;-2.00;99.90;;;;;;5064736;28;20093;-68
2024/01/18 05:17:21;;;;;;;53.97;24.75;;;-2.00;99.90;;;;;;5062158;28;20067;-68
2024/01/18 05:19:46;;;;;;;65.93;26.48;;;-2.10;99.90;;;;;;5065195;28;20021;-68
2024/01/18 05:22:12;;;;;;;61.53;24.83;;;-2.10;99.90;;;;;;5063434;28;20107;-68
2024/01/18 05:24:38;;;;;;;56.40;26.15;;;-2.20;99.90;;;;;;5063973;28;20044;-68
2024/01/18 05:27:05;;;;;;;56.10;26.02;;;-2.20;99.90;;;;;;5064042;28;20068;-70
2024/01/18 05:29:31;;;;;;;47.33;23.67;;;-2.20;99.90;;;;;;5063726;28;20017;-68
2024/01/18 05:31:57;;;;;;;55.17;26.15;;;-2.30;99.90;;;;;;5064865;28;20024;-69
2024/01/18 05:34:23;;;;;;;59.00;24.48;;;-2.30;99.90;;;;;;5065445;28;20028;-69
2024/01/18 05:36:48;;;;;;;61.50;24.33;;;-2.40;99.90;;;;;;5064201;28;20033;-68
2024/01/18 05:39:14;;;;;;;50.60;20.83;;;-2.40;99.90;;;;;;5063861;28;20041;-70
2024/01/18 05:41:40;;;;;;;43.53;19.33;;;-2.40;99.90;;;;;;5064087;28;20017;-68
2024/01/18 05:44:09;;;;;;;39.45;18.00;;;-2.50;99.90;;;;;;5065341;28;20081;-69
2024/01/18 05:46:35;;;;;;;42.08;17.10;;;-2.50;99.90;;;;;;5063897;28;20037;-69
2024/01/18 05:49:02;;;;;;;37.97;17.23;;;-2.50;99.90;;;;;;5063089;28;20024;-69
2024/01/18 05:51:28;;;;;;;38.25;16.33;;;-2.40;99.90;;;;;;5060672;28;20040;-69
2024/01/18 05:53:55;;;;;;;40.28;16.55;;;-2.50;99.90;;;;;;5062049;28;20033;-69
2024/01/18 05:56:20;;;;;;;40.88;17.05;;;-2.40;99.90;;;;;;5060880;28;20048;-70
2024/01/18 05:58:46;;;;;;;39.70;16.45;;;-2.40;99.90;;;;;;5062097;28;20028;-70
2024/01/18 06:01:12;;;;;;;34.60;15.65;;;-2.40;99.90;;;;;;5061770;28;20036;-69
2024/01/18 06:06:31;;;;;;;38.50;16.33;;;-2.30;99.90;;;;;;5063451;28;20055;-69
2024/01/18 06:08:57;;;;;;;45.28;17.40;;;-2.30;99.90;;;;;;5058867;28;20040;-69
2024/01/18 06:11:22;;;;;;;50.17;19.13;;;-2.30;99.90;;;;;;5059968;28;20024;-70
2024/01/18 06:13:48;;;;;;;49.03;18.42;;;-2.30;99.90;;;;;;5056492;28;20029;-70
2024/01/18 06:16:15;;;;;;;49.33;18.88;;;-2.30;99.90;;;;;;5063266;28;20088;-70
2024/01/18 06:18:42;;;;;;;45.15;18.40;;;-2.30;99.90;;;;;;5054235;28;20040;-69
2024/01/18 06:21:09;;;;;;;37.95;17.50;;;-2.30;99.90;;;;;;5060528;28;20047;-70
2024/01/18 06:23:35;;;;;;;48.53;18.27;;;-2.30;99.90;;;;;;5062044;28;20029;-72
2024/01/18 06:26:02;;;;;;;37.63;17.45;;;-2.30;99.90;;;;;;5062919;28;20200;-70
2024/01/18 06:28:28;;;;;;;39.22;17.25;;;-2.30;99.90;;;;;;5063099;28;20082;-68
2024/01/18 06:30:54;;;;;;;42.33;18.23;;;-2.30;99.90;;;;;;5063470;28;20029;-69
2024/01/18 06:33:19;;;;;;;38.20;17.50;;;-2.30;99.90;;;;;;5063978;28;20017;-70
2024/01/18 06:35:45;;;;;;;40.10;17.08;;;-2.30;99.90;;;;;;5058391;28;20036;-68
2024/01/18 06:38:12;;;;;;;40.78;17.33;;;-2.20;99.90;;;;;;5062434;28;20028;-68
2024/01/18 06:40:38;;;;;;;38.85;16.85;;;-2.30;99.90;;;;;;5054491;28;20025;-69
2024/01/18 06:43:04;;;;;;;36.70;16.73;;;-2.20;99.90;;;;;;5056587;28;20091;-68
2024/01/18 06:45:29;;;;;;;36.03;16.33;;;-2.20;99.90;;;;;;5061765;28;20473;-70
2024/01/18 06:47:55;;;;;;;42.45;17.38;;;-2.20;99.90;;;;;;5061379;28;20060;-70
2024/01/18 06:50:22;;;;;;;33.58;16.00;;;-2.20;99.90;;;;;;5062075;28;20029;-70
2024/01/18 06:52:48;;;;;;;38.70;15.85;;;-2.10;99.90;;;;;;5063807;28;20017;-67
2024/01/18 06:55:14;;;;;;;36.10;15.10;;;-2.20;99.90;;;;;;5063658;28;20041;-69
2024/01/18 06:57:40;;;;;;;33.20;14.20;;;-2.10;99.90;;;;;;5063507;28;20059;-70
2024/01/18 07:00:06;;;;;;;38.03;15.80;;;-2.10;99.90;;;;;;5062575;28;20021;-71
2024/01/18 07:02:33;;;;;;;38.72;14.98;;;-2.20;99.90;;;;;;5063956;28;20039;-69
2024/01/18 07:04:59;;;;;;;35.03;14.95;;;-2.10;99.90;;;;;;5063163;28;20045;-69
2024/01/18 07:07:25;;;;;;;42.08;16.15;;;-2.10;99.90;;;;;;5063414;28;20033;-69
2024/01/18 07:09:51;;;;;;;34.65;16.13;;;-2.10;99.90;;;;;;5063473;28;20063;-69
2024/01/18 07:12:17;;;;;;;34.60;15.45;;;-2.10;99.90;;;;;;5063743;28;20017;-68
2024/01/18 07:14:43;;;;;;;38.97;16.42;;;-2.20;99.90;;;;;;5061649;28;20048;-68
2024/01/18 07:17:10;;;;;;;37.55;15.57;;;-2.20;99.90;;;;;;5063079;28;20043;-68
2024/01/18 07:19:37;;;;;;;38.05;15.48;;;-2.20;99.90;;;;;;5063151;28;20029;-69
2024/01/18 07:22:03;;;;;;;34.35;15.30;;;-2.20;99.90;;;;;;5063009;28;20037;-68
2024/01/18 07:24:30;;;;;;;41.92;15.75;;;-2.20;99.90;;;;;;5063475;28;20036;-70
2024/01/18 07:26:59;;;;;;;45.58;17.83;;;-2.10;99.90;;;;;;5063218;28;20048;-68
2024/01/18 07:29:25;;;;;;;38.35;17.92;;;-2.20;99.90;;;;;;5061499;28;20033;-68
2024/01/18 07:31:51;;;;;;;48.08;20.00;;;-2.20;99.90;;;;;;5063225;28;20040;-68
2024/01/18 07:34:17;;;;;;;54.90;22.27;;;-2.20;99.90;;;;;;5062268;28;20029;-69
2024/01/18 07:36:46;;;;;;;45.13;19.02;;;-2.20;99.90;;;;;;5062580;28;20044;-71
2024/01/18 07:39:12;;;;;;;39.55;16.35;;;-2.20;99.90;;;;;;5063218;28;20048;-67
2024/01/18 07:41:38;;;;;;;33.45;15.20;;;-2.20;99.90;;;;;;5062846;28;20025;-69
2024/01/18 07:44:06;;;;;;;34.08;15.82;;;-2.20;99.90;;;;;;5062966;28;20017;-67
2024/01/18 07:46:35;;;;;;;35.33;15.25;;;-2.20;99.90;;;;;;5062960;28;20036;-69
2024/01/18 07:49:01;;;;;;;31.48;14.43;;;-2.20;99.90;;;;;;5062192;28;20013;-68
2024/01/18 07:51:28;;;;;;;35.15;13.88;;;-2.20;99.90;;;;;;5062927;28;20048;-69
2024/01/18 07:53:57;;;;;;;34.78;13.70;;;-2.10;99.90;;;;;;5061632;28;20036;-68
2024/01/18 07:56:22;;;;;;;35.55;14.07;;;-2.10;99.90;;;;;;5062457;28;20040;-69
2024/01/18 07:58:51;;;;;;;31.63;14.73;;;-2.10;99.90;;;;;;5062483;28;20017;-68
2024/01/18 08:01:18;;;;;;;34.13;15.02;;;-2.10;99.90;;;;;;5060300;28;20024;-70
2024/01/18 08:03:44;;;;;;;40.83;18.15;;;-2.00;99.90;;;;;;5061893;28;20051;-69
2024/01/18 08:06:11;;;;;;;39.30;16.40;;;-1.90;99.90;;;;;;5062955;28;20049;-69
2024/01/18 08:08:37;;;;;;;34.63;16.33;;;-1.60;99.90;;;;;;5060736;28;20021;-70
2024/01/18 08:11:03;;;;;;;32.47;15.55;;;-1.30;99.90;;;;;;5061291;28;20025;-68
2024/01/18 08:13:29;;;;;;;33.55;14.85;;;-1.10;99.90;;;;;;5062687;28;20051;-67
2024/01/18 08:15:57;;;;;;;32.80;13.88;;;-0.80;99.90;;;;;;5061031;28;20501;-69
2024/01/18 08:18:26;;;;;;;32.08;13.07;;;-0.50;99.90;;;;;;5062073;28;20107;-69
2024/01/18 08:20:51;;;;;;;26.48;12.13;;;-0.30;99.90;;;;;;5062045;28;20033;-67
2024/01/18 08:23:18;;;;;;;24.25;10.25;;;0.00;99.90;;;;;;5062241;28;20028;-68
2024/01/18 08:25:44;;;;;;;17.85;9.65;;;0.10;99.90;;;;;;5060368;28;20024;-68
2024/01/18 08:28:13;;;;;;;17.92;10.20;;;0.20;99.90;;;;;;5062528;28;20099;-68
2024/01/18 08:30:42;;;;;;;21.67;10.88;;;0.40;99.90;;;;;;5060333;28;20623;-69
2024/01/18 08:33:09;;;;;;;37.92;13.80;;;0.70;99.90;;;;;;5062153;28;20028;-70
2024/01/18 08:35:34;;;;;;;23.25;10.85;;;0.90;99.90;;;;;;5062561;28;20025;-69
2024/01/18 08:38:00;;;;;;;25.48;11.70;;;1.20;99.90;;;;;;5061863;28;20036;-68
2024/01/18 08:40:26;;;;;;;26.92;11.85;;;1.40;99.90;;;;;;5062192;28;20474;-68
2024/01/18 08:42:52;;;;;;;19.25;10.50;;;1.50;99.90;;;;;;5062178;28;20081;-69
2024/01/18 08:45:20;;;;;;;22.33;10.50;;;1.70;99.90;;;;;;5061975;28;20021;-68
2024/01/18 08:47:47;;;;;;;47.65;17.95;;;1.80;99.90;;;;;;5061763;28;20055;-68
2024/01/18 08:50:15;;;;;;;19.48;9.82;;;2.00;99.90;;;;;;5061941;28;20047;-67
2024/01/18 08:52:41;;;;;;;19.00;9.43;;;2.20;99.90;;;;;;5061630;28;20021;-69
2024/01/18 08:55:07;;;;;;;18.45;9.77;;;2.40;99.90;;;;;;5060878;28;20027;-67
2024/01/18 08:57:33;;;;;;;20.67;8.77;;;2.60;99.90;;;;;;5061762;28;20013;-67
2024/01/18 08:59:58;;;;;;;17.70;9.13;;;2.80;99.90;;;;;;5061868;28;20055;-68
2024/01/18 09:02:24;;;;;;;19.10;9.93;;;2.90;99.90;;;;;;5062143;28;20064;-67
2024/01/18 09:04:50;;;;;;;20.33;10.02;;;2.70;99.90;;;;;;5061128;28;20126;-69
2024/01/18 09:07:16;;;;;;;23.05;9.40;;;2.60;99.90;;;;;;5061913;28;20573;-65
2024/01/18 09:09:44;;;;;;;22.70;10.68;;;2.60;99.90;;;;;;5060234;28;20036;-66
2024/01/18 09:12:13;;;;;;;23.48;11.68;;;2.80;99.90;;;;;;5061573;28;20029;-66
2024/01/18 09:14:39;;;;;;;22.23;9.93;;;3.00;99.90;;;;;;5060894;28;20085;-69
2024/01/18 09:17:05;;;;;;;15.45;8.00;;;3.00;99.90;;;;;;5060515;28;20041;-66
2024/01/18 09:19:30;;;;;;;16.33;8.02;;;2.90;99.90;;;;;;5060303;28;20055;-67
2024/01/18 09:21:57;;;;;;;16.50;8.02;;;2.60;99.90;;;;;;5061742;28;20025;-67
2024/01/18 09:24:23;;;;;;;15.10;8.23;;;2.30;99.90;;;;;;5056111;28;20119;-66
2024/01/18 09:26:49;;;;;;;18.75;9.02;;;2.10;99.90;;;;;;5059567;28;20095;-69
2024/01/18 09:29:14;;;;;;;14.23;7.50;;;2.00;99.90;;;;;;5054211;28;20616;-69
2024/01/18 09:31:40;;;;;;;21.45;8.02;;;1.90;99.90;;;;;;5059772;28;20033;-67
2024/01/18 09:34:06;;;;;;;23.02;8.75;;;1.90;99.90;;;;;;5058720;28;20033;-67
2024/01/18 09:36:32;;;;;;;18.10;8.40;;;1.60;99.90;;;;;;5058202;28;20048;-66
2024/01/18 09:38:57;;;;;;;19.00;9.40;;;1.60;99.90;;;;;;5064334;28;20105;-68
2024/01/18 09:41:26;;;;;;;17.33;9.57;;;1.50;99.90;;;;;;5062559;28;20079;-68
2024/01/18 09:43:57;;;;;;;18.73;9.07;;;1.50;99.90;;;;;;5061539;28;20029;-67
2024/01/18 09:46:23;;;;;;;15.07;8.52;;;1.60;99.90;;;;;;5061953;28;20132;-66
2024/01/18 09:48:49;;;;;;;14.93;8.50;;;1.80;99.90;;;;;;5063526;28;20048;-66
2024/01/18 09:51:15;;;;;;;19.20;8.85;;;2.00;99.90;;;;;;5063996;28;20025;-67
2024/01/18 09:53:47;;;;;;;14.82;7.82;;;2.10;99.90;;;;;;5064653;28;20046;-67
2024/01/18 09:56:25;;;;;;;16.50;8.00;;;2.40;99.90;;;;;;5064959;28;20017;-66
2024/01/18 09:58:52;;;;;;;13.93;7.07;;;2.70;99.90;;;;;;5059534;28;20073;-67
2024/01/18 10:01:23;;;;;;;13.57;6.80;;;3.00;99.90;;;;;;5062760;28;20055;-66
2024/01/18 10:03:49;;;;;;;15.07;8.02;;;3.40;99.90;;;;;;5063207;28;20045;-67
2024/01/18 10:06:17;;;;;;;16.25;7.63;;;3.80;99.90;;;;;;5063722;28;20056;-66
2024/01/18 10:08:44;;;;;;;15.55;7.93;;;4.20;99.90;;;;;;5060456;28;20021;-67
2024/01/18 10:11:09;;;;;;;16.83;7.80;;;4.50;99.90;;;;;;5055345;28;20032;-66
2024/01/18 10:13:52;;;;;;;15.65;7.68;;;4.80;99.90;;;;;;5060925;28;20037;-69
2024/01/18 10:16:27;;;;;;;18.27;8.63;;;5.00;99.90;;;;;;5060510;28;20057;-66
2024/01/18 10:18:57;;;;;;;16.50;7.38;;;5.00;99.90;;;;;;5063198;28;20025;-67
2024/01/18 10:21:23;;;;;;;11.20;6.82;;;5.20;99.90;;;;;;5061443;28;20037;-67
2024/01/18 10:23:51;;;;;;;12.93;6.80;;;5.40;99.90;;;;;;5061262;28;20036;-67
2024/01/18 10:26:17;;;;;;;10.90;5.80;;;5.70;99.90;;;;;;5064269;28;20025;-69
2024/01/18 10:28:43;;;;;;;21.23;7.75;;;5.90;99.90;;;;;;5062212;28;20033;-66
2024/01/18 10:31:09;;;;;;;9.35;5.60;;;5.90;99.90;;;;;;5063173;28;20025;-68
2024/01/18 10:33:34;;;;;;;11.98;5.20;;;6.20;99.90;;;;;;5063849;28;20358;-67
2024/01/18 10:36:00;;;;;;;10.98;5.47;;;5.80;99.90;;;;;;5063193;28;20029;-66
2024/01/18 10:38:29;;;;;;;11.02;5.28;;;5.30;99.90;;;;;;5063146;28;20053;-66
2024/01/18 10:40:57;;;;;;;12.88;5.57;;;4.70;99.90;;;;;;5063523;28;20066;-66
2024/01/18 10:43:27;;;;;;;12.70;5.90;;;4.50;99.90;;;;;;5064004;28;20021;-67
2024/01/18 10:45:53;;;;;;;9.35;5.53;;;4.20;99.90;;;;;;5063563;28;20037;-67
2024/01/18 10:48:19;;;;;;;18.52;7.68;;;3.90;99.90;;;;;;5062681;28;20039;-66
2024/01/18 10:50:45;;;;;;;24.80;10.90;;;3.80;99.90;;;;;;5060681;28;20086;-68
2024/01/18 10:53:11;;;;;;;8.82;5.50;;;3.90;99.90;;;;;;5060303;28;20028;-67
2024/01/18 10:55:37;;;;;;;29.20;13.23;;;4.30;99.90;;;;;;5059500;28;20409;-66
2024/01/18 10:58:03;;;;;;;12.60;6.57;;;4.80;99.90;;;;;;5056607;28;20025;-65
2024/01/18 11:00:29;;;;;;;11.50;6.13;;;5.20;99.90;;;;;;5058099;28;20044;-67
2024/01/18 11:02:56;;;;;;;11.93;6.85;;;5.60;99.90;;;;;;5057810;28;20025;-66
2024/01/18 11:05:23;;;;;;;8.55;5.07;;;5.90;99.90;;;;;;5060724;28;20052;-66
2024/01/18 11:07:49;;;;;;;11.75;4.53;;;6.00;99.90;;;;;;5061174;28;20148;-65
2024/01/18 11:10:15;;;;;;;12.38;4.28;;;5.80;99.90;;;;;;5061446;28;20474;-67
2024/01/18 11:12:41;;;;;;;8.38;4.40;;;5.80;99.90;;;;;;5057255;28;20032;-67
2024/01/18 11:15:10;;;;;;;6.63;3.80;;;5.90;99.90;;;;;;5058538;28;20022;-66
2024/01/18 11:17:46;;;;;;;10.73;4.28;;;6.20;99.90;;;;;;5057741;28;20161;-67
2024/01/18 11:20:12;;;;;;;14.20;4.43;;;6.10;99.90;;;;;;5054817;28;20037;-65
2024/01/18 11:22:39;;;;;;;10.23;4.55;;;5.30;99.90;;;;;;5060705;28;20029;-67
2024/01/18 11:25:07;;;;;;;7.70;4.00;;;4.80;99.90;;;;;;5059780;28;20029;-68
2024/01/18 11:27:42;;;;;;;7.97;4.10;;;4.60;99.90;;;;;;5057604;28;20049;-67
2024/01/18 11:30:11;;;;;;;10.10;4.10;;;5.10;99.90;;;;;;5060699;28;20028;-68
2024/01/18 11:32:37;;;;;;;5.05;2.97;;;5.90;99.90;;;;;;5061747;28;20072;-68
2024/01/18 11:35:12;;;;;;;11.07;3.67;;;6.20;99.90;;;;;;5062478;28;20021;-67
2024/01/18 11:37:38;;;;;;;9.63;3.80;;;6.50;99.90;;;;;;5062643;28;20028;-69
2024/01/18 11:40:10;;;;;;;5.90;3.72;;;6.90;99.90;;;;;;5052187;28;20029;-69
2024/01/18 11:42:40;;;;;;;6.88;3.65;;;7.20;99.90;;;;;;5059256;28;20067;-69
2024/01/18 11:45:12;;;;;;;6.65;3.08;;;7.10;99.90;;;;;;5053453;28;20043;-68
2024/01/18 11:47:39;;;;;;;7.38;3.03;;;7.10;99.90;;;;;;5057480;28;20044;-67
2024/01/18 11:50:08;;;;;;;6.38;3.13;;;7.10;99.90;;;;;;5059207;28;20021;-69
2024/01/18 11:52:42;;;;;;;9.15;3.13;;;7.20;99.90;;;;;;5060586;28;20037;-67
2024/01/18 11:55:11;;;;;;;7.07;3.38;;;7.30;99.90;;;;;;5059716;28;20060;-67
2024/01/18 11:57:37;;;;;;;7.82;3.58;;;7.40;99.90;;;;;;5060593;28;20039;-66
2024/01/18 12:00:03;;;;;;;10.05;3.47;;;7.50;99.90;;;;;;5056840;28;20049;-66
2024/01/18 12:02:30;;;;;;;6.35;3.35;;;7.70;99.90;;;;;;5059731;28;20060;-67
2024/01/18 12:04:59;;;;;;;5.53;3.70;;;8.00;99.90;;;;;;5058162;28;20049;-67
2024/01/18 12:07:26;;;;;;;15.65;7.97;;;8.40;99.90;;;;;;5059839;28;20040;-67
2024/01/18 12:09:52;;;;;;;19.58;10.38;;;8.30;99.90;;;;;;5057763;28;20036;-67
2024/01/18 12:12:19;;;;;;;20.95;11.38;;;8.00;99.90;;;;;;5058675;28;20029;-66
2024/01/18 12:14:45;;;;;;;28.02;14.02;;;8.00;99.90;;;;;;5058958;28;20033;-68
2024/01/18 12:17:15;;;;;;;22.13;11.23;;;8.10;99.90;;;;;;5059325;28;20079;-68
2024/01/18 12:19:43;;;;;;;31.92;14.10;;;7.80;99.90;;;;;;5059551;28;20093;-68
2024/01/18 12:22:15;;;;;;;11.18;6.03;;;7.30;99.90;;;;;;5059472;28;20025;-69
2024/01/18 12:24:41;;;;;;;26.63;12.57;;;6.40;99.90;;;;;;5057542;28;20041;-68
2024/01/18 12:27:10;;;;;;;17.50;8.55;;;5.80;99.90;;;;;;5059813;28;20117;-68
2024/01/18 12:29:39;;;;;;;12.27;5.10;;;5.30;99.90;;;;;;5059807;28;20025;-67
2024/01/18 12:32:05;;;;;;;10.23;5.30;;;5.20;99.90;;;;;;5061850;28;20024;-69